Time;durP1;ratioP1;P1;durP2;ratioP2;P2;SDS_P1;SDS_P2;PMS_P1;PMS_P2;Temp;Humidity;BMP_temperature;BMP_pressure;BME280_temperature;BME280_humidity;BME280_pressure;Samples;Min_cycle;Max_cycle;Signal;HPM_P1;HPM_P2
2024/01/15 00:01:56;;;;;;;11.63;8.43;;;2.40;99.90;;;;;;5021295;28;20228;-60
2024/01/15 00:04:22;;;;;;;13.90;8.57;;;2.40;99.90;;;;;;5012402;28;20176;-59
2024/01/15 00:06:49;;;;;;;10.37;8.27;;;2.30;99.90;;;;;;5013252;28;20180;-64
2024/01/15 00:09:14;;;;;;;10.70;8.67;;;2.30;99.90;;;;;;5010941;28;20598;-62
2024/01/15 00:11:40;;;;;;;13.13;8.90;;;2.20;99.90;;;;;;5011471;28;20491;-63
2024/01/15 00:14:06;;;;;;;11.80;8.37;;;2.20;99.90;;;;;;5019450;28;20168;-62
2024/01/15 00:16:31;;;;;;;10.03;7.57;;;2.10;99.90;;;;;;5016485;28;20168;-62
2024/01/15 00:18:58;;;;;;;11.33;8.13;;;2.10;99.90;;;;;;5011064;28;20286;-59
2024/01/15 00:21:24;;;;;;;14.80;8.37;;;2.20;99.90;;;;;;5011259;28;20412;-61
2024/01/15 00:23:49;;;;;;;12.80;8.00;;;2.20;99.90;;;;;;5012631;28;20208;-62
2024/01/15 00:26:15;;;;;;;14.20;9.57;;;2.20;99.90;;;;;;5017932;28;20169;-62
2024/01/15 00:28:41;;;;;;;16.47;8.93;;;2.20;99.90;;;;;;5010649;28;20188;-63
2024/01/15 00:31:06;;;;;;;9.93;7.70;;;2.20;99.90;;;;;;5011177;28;20184;-62
2024/01/15 00:33:32;;;;;;;10.00;7.97;;;2.20;99.90;;;;;;5010339;28;20584;-63
2024/01/15 00:35:58;;;;;;;13.30;9.27;;;2.20;99.90;;;;;;5009605;28;20252;-63
2024/01/15 00:38:23;;;;;;;11.83;7.90;;;2.20;99.90;;;;;;5010988;28;20740;-62
2024/01/15 00:40:49;;;;;;;12.83;9.30;;;2.20;99.90;;;;;;5008265;28;20662;-60
2024/01/15 00:43:18;;;;;;;10.67;6.93;;;2.20;99.90;;;;;;5010898;28;20207;-61
2024/01/15 00:45:43;;;;;;;9.43;7.73;;;2.20;99.90;;;;;;5026594;23;20230;-58
2024/01/15 00:48:09;;;;;;;12.33;8.50;;;2.20;99.90;;;;;;5032407;28;20419;-59
2024/01/15 00:50:35;;;;;;;15.53;8.80;;;2.20;99.90;;;;;;5031446;28;20171;-60
2024/01/15 00:53:01;;;;;;;12.33;9.47;;;2.20;99.90;;;;;;5031663;28;20517;-60
2024/01/15 00:55:28;;;;;;;11.00;7.97;;;2.20;99.90;;;;;;5031617;28;20188;-60
2024/01/15 00:57:53;;;;;;;15.13;8.57;;;2.20;99.90;;;;;;5031208;28;20262;-60
2024/01/15 01:00:19;;;;;;;12.93;9.07;;;2.20;99.90;;;;;;5031677;28;20828;-60
2024/01/15 01:02:44;;;;;;;12.80;8.50;;;2.20;99.90;;;;;;5031048;28;20278;-60
2024/01/15 01:05:10;;;;;;;11.90;7.77;;;2.10;99.90;;;;;;5031664;28;20222;-60
2024/01/15 01:07:35;;;;;;;12.50;8.90;;;2.10;99.90;;;;;;5031307;28;20845;-61
2024/01/15 01:10:01;;;;;;;11.27;7.47;;;2.10;99.90;;;;;;5031244;28;20180;-60
2024/01/15 01:12:27;;;;;;;13.27;8.17;;;2.00;99.90;;;;;;5031496;28;20262;-60
2024/01/15 01:14:52;;;;;;;12.50;8.47;;;1.90;99.90;;;;;;5030868;28;20229;-60
2024/01/15 01:17:18;;;;;;;12.20;8.73;;;1.80;99.90;;;;;;5032124;28;20207;-61
2024/01/15 01:19:44;;;;;;;14.33;8.33;;;1.80;99.90;;;;;;5030952;28;20188;-58
2024/01/15 01:22:09;;;;;;;10.93;8.30;;;1.80;99.90;;;;;;5031403;28;20207;-57
2024/01/15 01:24:35;;;;;;;16.37;8.97;;;1.70;99.90;;;;;;5031167;28;20179;-59
2024/01/15 01:27:00;;;;;;;18.30;7.80;;;1.70;99.90;;;;;;5030789;28;20215;-60
2024/01/15 01:29:26;;;;;;;11.50;8.40;;;1.70;99.90;;;;;;5030983;28;20191;-56
2024/01/15 01:31:52;;;;;;;13.97;8.37;;;1.80;99.90;;;;;;5030916;28;20172;-56
2024/01/15 01:34:18;;;;;;;11.07;8.00;;;1.70;99.90;;;;;;5031222;28;20951;-57
2024/01/15 01:36:43;;;;;;;12.33;8.93;;;1.70;99.90;;;;;;5031045;28;20188;-60
2024/01/15 01:39:09;;;;;;;11.10;7.67;;;1.80;99.90;;;;;;5022914;28;20282;-58
2024/01/15 01:41:35;;;;;;;11.27;7.57;;;1.70;99.90;;;;;;5031058;28;20657;-59
2024/01/15 01:44:01;;;;;;;12.03;8.43;;;1.70;99.90;;;;;;5030761;28;20523;-59
2024/01/15 01:46:28;;;;;;;13.43;8.90;;;1.70;99.90;;;;;;5031643;28;20515;-59
2024/01/15 01:48:57;;;;;;;12.70;8.07;;;1.70;99.90;;;;;;5030909;28;20183;-58
2024/01/15 01:51:24;;;;;;;11.70;7.73;;;1.60;99.90;;;;;;5031285;28;20438;-59
2024/01/15 01:53:51;;;;;;;12.10;8.00;;;1.50;99.90;;;;;;5030655;28;20430;-60
2024/01/15 01:56:17;;;;;;;10.87;8.13;;;1.50;99.90;;;;;;5031634;28;20473;-59
2024/01/15 01:58:44;;;;;;;13.40;7.90;;;1.60;99.90;;;;;;5030905;28;20415;-60
2024/01/15 02:01:11;;;;;;;12.63;8.90;;;1.50;99.90;;;;;;5030035;28;20430;-60
2024/01/15 02:03:39;;;;;;;12.07;8.60;;;1.60;99.90;;;;;;5030150;28;20461;-60
2024/01/15 02:06:05;;;;;;;16.23;8.47;;;1.50;99.90;;;;;;5030395;28;20473;-60
2024/01/15 02:08:31;;;;;;;11.33;8.60;;;1.60;99.90;;;;;;5030381;28;20422;-60
2024/01/15 02:10:56;;;;;;;14.33;7.80;;;1.60;99.90;;;;;;5030537;28;20226;-59
2024/01/15 02:13:22;;;;;;;14.23;8.97;;;1.60;99.90;;;;;;5030618;28;20266;-59
2024/01/15 02:15:48;;;;;;;11.83;7.57;;;1.50;99.90;;;;;;5030455;28;20226;-57
2024/01/15 02:18:13;;;;;;;16.70;8.83;;;1.60;99.90;;;;;;5030811;28;20422;-60
2024/01/15 02:20:39;;;;;;;16.83;7.60;;;1.60;99.90;;;;;;5030690;28;20187;-59
2024/01/15 02:23:12;;;;;;;13.37;8.90;;;1.60;99.90;;;;;;5030334;28;20274;-58
2024/01/15 02:25:40;;;;;;;11.80;7.43;;;1.60;99.90;;;;;;5030971;28;20245;-58
2024/01/15 02:28:08;;;;;;;11.00;7.10;;;1.60;99.90;;;;;;5030411;28;20502;-58
2024/01/15 02:30:39;;;;;;;13.63;7.50;;;1.60;99.90;;;;;;5030498;28;20909;-59
2024/01/15 02:33:05;;;;;;;12.00;8.10;;;1.60;99.90;;;;;;5032537;28;20430;-59
2024/01/15 02:35:31;;;;;;;11.60;7.00;;;1.60;99.90;;;;;;5033864;28;20533;-60
2024/01/15 02:37:57;;;;;;;17.03;8.03;;;1.60;99.90;;;;;;5031713;28;20529;-59
2024/01/15 02:40:22;;;;;;;10.13;5.87;;;1.60;99.90;;;;;;5031133;28;20472;-59
2024/01/15 02:42:48;;;;;;;10.13;7.07;;;1.60;99.90;;;;;;5033532;28;20556;-61
2024/01/15 02:45:14;;;;;;;9.30;6.57;;;1.60;99.90;;;;;;5033928;28;20176;-58
2024/01/15 02:47:39;;;;;;;11.30;6.57;;;1.60;99.90;;;;;;5033952;28;20183;-58
2024/01/15 02:50:05;;;;;;;10.27;6.97;;;1.60;99.90;;;;;;5033955;28;20175;-58
2024/01/15 02:52:31;;;;;;;8.57;5.13;;;1.60;99.90;;;;;;5034221;28;20186;-59
2024/01/15 02:54:56;;;;;;;10.27;6.00;;;1.60;99.90;;;;;;5033631;28;20512;-58
2024/01/15 02:57:22;;;;;;;10.37;7.20;;;1.60;99.90;;;;;;5033585;28;20211;-58
2024/01/15 02:59:47;;;;;;;8.73;5.60;;;1.60;99.90;;;;;;5033648;28;20183;-59
2024/01/15 03:02:13;;;;;;;10.87;6.37;;;1.70;99.90;;;;;;5033389;28;20203;-60
2024/01/15 03:04:43;;;;;;;11.23;5.40;;;1.70;99.90;;;;;;5033646;28;20172;-60
2024/01/15 03:07:09;;;;;;;9.70;6.00;;;1.70;99.90;;;;;;5033385;28;20206;-60
2024/01/15 03:09:34;;;;;;;9.77;5.77;;;1.70;99.90;;;;;;5032666;28;20427;-59
2024/01/15 03:12:00;;;;;;;10.47;6.13;;;1.70;99.90;;;;;;5033030;28;20246;-60
2024/01/15 03:14:26;;;;;;;8.10;5.50;;;1.80;99.90;;;;;;5033007;28;20179;-60
2024/01/15 03:16:52;;;;;;;8.27;5.20;;;1.80;99.90;;;;;;5033009;28;20195;-60
2024/01/15 03:19:18;;;;;;;8.47;5.40;;;1.80;99.90;;;;;;5032903;28;20268;-58
2024/01/15 03:21:43;;;;;;;19.07;6.27;;;1.80;99.90;;;;;;5032906;28;20494;-60
2024/01/15 03:24:09;;;;;;;14.03;6.20;;;1.80;99.90;;;;;;5032152;28;20188;-60
2024/01/15 03:26:34;;;;;;;8.80;5.57;;;1.80;99.90;;;;;;5033091;28;20214;-60
2024/01/15 03:29:00;;;;;;;6.73;5.57;;;1.80;99.90;;;;;;5032991;28;20262;-59
2024/01/15 03:31:26;;;;;;;8.40;5.80;;;1.80;99.90;;;;;;5032923;28;20184;-60
2024/01/15 03:33:51;;;;;;;9.07;5.80;;;1.80;99.90;;;;;;5032763;28;20184;-60
2024/01/15 03:36:17;;;;;;;9.53;5.93;;;1.80;99.90;;;;;;5032767;28;20203;-60
2024/01/15 03:38:43;;;;;;;8.23;5.33;;;1.80;99.90;;;;;;5032492;28;20934;-60
2024/01/15 03:41:08;;;;;;;9.70;5.87;;;1.80;99.90;;;;;;5032506;28;20183;-60
2024/01/15 03:43:34;;;;;;;6.07;5.00;;;1.80;99.90;;;;;;5032347;28;20210;-59
2024/01/15 03:45:59;;;;;;;7.67;4.87;;;1.80;99.90;;;;;;5032310;28;20691;-58
2024/01/15 03:48:25;;;;;;;7.33;5.27;;;1.80;99.90;;;;;;5032502;28;20193;-59
2024/01/15 03:50:51;;;;;;;7.73;4.73;;;1.80;99.90;;;;;;5032658;28;20270;-59
2024/01/15 03:53:16;;;;;;;6.87;3.90;;;1.90;99.90;;;;;;5032251;28;20183;-61
2024/01/15 03:55:42;;;;;;;6.23;5.63;;;1.90;99.90;;;;;;5032629;28;20207;-59
2024/01/15 03:58:08;;;;;;;9.70;4.90;;;1.90;99.90;;;;;;5032267;28;20199;-58
2024/01/15 04:00:34;;;;;;;5.73;4.40;;;1.90;99.90;;;;;;5032271;28;20444;-59
2024/01/15 04:03:00;;;;;;;6.63;4.90;;;1.90;99.90;;;;;;5032469;28;20828;-59
2024/01/15 04:05:25;;;;;;;8.93;4.70;;;1.90;99.90;;;;;;5032454;28;20517;-60
2024/01/15 04:07:51;;;;;;;9.93;4.80;;;1.90;99.90;;;;;;5032179;28;20190;-59
2024/01/15 04:10:17;;;;;;;9.10;5.43;;;1.90;99.90;;;;;;5031638;28;20186;-60
2024/01/15 04:12:42;;;;;;;8.40;5.40;;;1.90;99.90;;;;;;5031479;28;20179;-60
2024/01/15 04:15:08;;;;;;;7.33;5.00;;;1.90;99.90;;;;;;5031665;28;20230;-61
2024/01/15 04:17:34;;;;;;;7.20;5.43;;;1.90;99.90;;;;;;5032052;28;20286;-60
2024/01/15 04:19:59;;;;;;;10.33;5.00;;;1.90;99.90;;;;;;5031820;28;20186;-60
2024/01/15 04:22:26;;;;;;;8.80;5.03;;;1.90;99.90;;;;;;5031862;28;20213;-57
2024/01/15 04:24:52;;;;;;;8.63;5.00;;;1.90;99.90;;;;;;5032000;28;20286;-59
2024/01/15 04:27:17;;;;;;;7.60;4.50;;;1.90;99.90;;;;;;5031667;28;20865;-60
2024/01/15 04:29:44;;;;;;;7.40;5.93;;;1.90;99.90;;;;;;5032089;28;20669;-58
2024/01/15 04:32:10;;;;;;;7.23;4.00;;;1.90;99.90;;;;;;5031813;28;20187;-59
2024/01/15 04:34:35;;;;;;;5.43;3.83;;;1.90;99.90;;;;;;5031462;28;20973;-60
2024/01/15 04:37:01;;;;;;;11.13;4.50;;;1.90;99.90;;;;;;5031336;28;20214;-60
2024/01/15 04:39:27;;;;;;;4.97;3.40;;;2.00;99.90;;;;;;5030968;28;20275;-59
2024/01/15 04:41:53;;;;;;;12.43;5.27;;;2.00;99.90;;;;;;5031440;28;20190;-60
2024/01/15 04:44:18;;;;;;;7.63;4.23;;;2.00;99.90;;;;;;5031324;28;20195;-59
2024/01/15 04:46:44;;;;;;;6.63;4.80;;;2.00;99.90;;;;;;5031073;28;20214;-58
2024/01/15 04:49:10;;;;;;;6.50;3.40;;;2.00;99.90;;;;;;5031459;28;20233;-59
2024/01/15 04:51:36;;;;;;;14.27;4.17;;;2.00;99.90;;;;;;5030823;28;20176;-59
2024/01/15 04:54:01;;;;;;;5.63;2.97;;;2.00;99.90;;;;;;5031039;28;20456;-60
2024/01/15 04:56:27;;;;;;;4.50;3.23;;;2.00;99.90;;;;;;5031037;28;20302;-59
2024/01/15 04:58:53;;;;;;;5.33;3.90;;;2.00;99.90;;;;;;5031175;28;20198;-60
2024/01/15 05:01:18;;;;;;;5.50;3.30;;;2.10;99.90;;;;;;5031102;28;20654;-59
2024/01/15 05:03:44;;;;;;;6.27;3.27;;;2.10;99.90;;;;;;5030612;28;20689;-59
2024/01/15 05:06:09;;;;;;;6.60;3.67;;;2.10;99.90;;;;;;5030953;28;20213;-58
2024/01/15 05:08:35;;;;;;;6.33;3.10;;;2.10;99.90;;;;;;5031430;28;20254;-60
2024/01/15 05:11:01;;;;;;;4.33;2.90;;;2.10;99.90;;;;;;5030897;28;20254;-60
2024/01/15 05:13:26;;;;;;;3.60;2.87;;;2.10;99.90;;;;;;5031257;28;20191;-59
2024/01/15 05:15:52;;;;;;;4.77;4.03;;;2.10;99.90;;;;;;5031208;28;20203;-60
2024/01/15 05:18:18;;;;;;;5.93;3.20;;;2.10;99.90;;;;;;5030913;28;20712;-61
2024/01/15 05:20:44;;;;;;;3.30;2.43;;;2.10;99.90;;;;;;5030931;28;20422;-59
2024/01/15 05:23:09;;;;;;;9.43;3.00;;;2.10;99.90;;;;;;5030520;28;20215;-59
2024/01/15 05:25:35;;;;;;;3.23;2.93;;;2.10;99.90;;;;;;5030363;28;20281;-60
2024/01/15 05:28:02;;;;;;;11.90;3.33;;;2.10;99.90;;;;;;5030725;28;20191;-58
2024/01/15 05:30:27;;;;;;;7.13;2.90;;;2.10;99.90;;;;;;5030942;28;20237;-60
2024/01/15 05:32:53;;;;;;;3.43;2.87;;;2.10;99.90;;;;;;5030969;28;20430;-60
2024/01/15 05:35:19;;;;;;;8.40;3.20;;;2.10;99.90;;;;;;5030719;28;20191;-60
2024/01/15 05:37:45;;;;;;;3.60;2.50;;;2.10;99.90;;;;;;5030783;28;20624;-58
2024/01/15 05:40:12;;;;;;;5.47;4.17;;;2.10;99.90;;;;;;5031567;28;20245;-60
2024/01/15 05:42:39;;;;;;;5.73;2.60;;;2.10;99.90;;;;;;5030917;28;20462;-60
2024/01/15 05:45:05;;;;;;;6.17;3.03;;;2.10;99.90;;;;;;5030094;28;20463;-60
2024/01/15 05:47:31;;;;;;;9.20;3.60;;;2.20;99.90;;;;;;5029486;28;20471;-60
2024/01/15 05:49:57;;;;;;;10.60;3.10;;;2.20;99.90;;;;;;5013061;28;21008;-60
2024/01/15 05:52:23;;;;;;;6.50;2.90;;;2.20;99.90;;;;;;5030727;28;20224;-60
2024/01/15 05:54:49;;;;;;;8.63;3.30;;;2.20;99.90;;;;;;5030748;28;20507;-60
2024/01/15 05:57:15;;;;;;;7.40;2.90;;;2.20;99.90;;;;;;5030625;28;20214;-60
2024/01/15 05:59:40;;;;;;;3.80;2.80;;;2.30;99.90;;;;;;5030578;28;20426;-59
2024/01/15 06:02:06;;;;;;;3.37;2.40;;;2.20;99.90;;;;;;5030546;28;20188;-60
2024/01/15 06:04:32;;;;;;;5.90;2.60;;;2.10;99.90;;;;;;5030812;28;20183;-60
2024/01/15 06:06:57;;;;;;;4.93;3.10;;;2.10;99.90;;;;;;5030588;28;20211;-60
2024/01/15 06:09:23;;;;;;;5.30;3.03;;;2.10;99.90;;;;;;5034139;28;20194;-60
2024/01/15 06:11:48;;;;;;;2.90;2.50;;;2.10;99.90;;;;;;5034242;28;20234;-59
2024/01/15 06:14:14;;;;;;;7.50;2.43;;;2.10;99.90;;;;;;5033611;28;20179;-60
2024/01/15 06:16:40;;;;;;;6.10;2.17;;;2.10;99.90;;;;;;5034006;28;20194;-60
2024/01/15 06:19:05;;;;;;;8.17;2.60;;;2.10;99.90;;;;;;5033916;28;20712;-60
2024/01/15 06:21:31;;;;;;;5.70;2.70;;;2.20;99.90;;;;;;5034444;28;20207;-60
2024/01/15 06:23:56;;;;;;;8.57;2.47;;;2.20;99.90;;;;;;5033823;28;20215;-60
2024/01/15 06:26:22;;;;;;;2.30;2.10;;;2.20;99.90;;;;;;5033407;28;20283;-60
2024/01/15 06:28:48;;;;;;;4.30;2.27;;;2.20;99.90;;;;;;5034239;28;20179;-60
2024/01/15 06:31:14;;;;;;;5.43;1.90;;;2.30;99.90;;;;;;5033818;28;20484;-60
2024/01/15 06:33:40;;;;;;;3.40;1.90;;;2.30;99.90;;;;;;5034070;28;20187;-60
2024/01/15 06:36:06;;;;;;;4.40;2.03;;;2.30;99.90;;;;;;5033890;28;20203;-60
2024/01/15 06:38:31;;;;;;;8.30;2.67;;;2.30;99.90;;;;;;5034371;28;20513;-60
2024/01/15 06:40:57;;;;;;;3.30;1.80;;;2.30;99.90;;;;;;5034671;28;20457;-58
2024/01/15 06:43:22;;;;;;;3.23;1.97;;;2.30;99.90;;;;;;5033820;28;20243;-59
2024/01/15 06:45:48;;;;;;;2.87;1.70;;;2.30;99.90;;;;;;5033964;28;20214;-60
2024/01/15 06:48:16;;;;;;;5.00;2.50;;;2.30;99.90;;;;;;5033908;28;20188;-60
2024/01/15 06:50:42;;;;;;;3.93;1.83;;;2.30;99.90;;;;;;5033922;28;20191;-61
2024/01/15 06:53:08;;;;;;;4.20;2.30;;;2.30;99.90;;;;;;5033482;28;20860;-60
2024/01/15 06:55:34;;;;;;;5.23;2.50;;;2.30;99.90;;;;;;5033727;28;20477;-59
2024/01/15 06:57:59;;;;;;;5.40;2.57;;;2.30;99.90;;;;;;5033066;28;20269;-60
2024/01/15 07:00:26;;;;;;;6.10;2.40;;;2.30;99.90;;;;;;5015156;28;20187;-60
2024/01/15 07:02:51;;;;;;;13.37;2.20;;;2.30;99.90;;;;;;5033417;28;20203;-60
2024/01/15 07:05:17;;;;;;;6.90;2.77;;;2.30;99.90;;;;;;5031960;28;20429;-60
2024/01/15 07:07:43;;;;;;;4.27;2.17;;;2.30;99.90;;;;;;5033695;28;20266;-58
2024/01/15 07:10:08;;;;;;;2.70;1.80;;;2.30;99.90;;;;;;5033337;28;20497;-60
2024/01/15 07:12:34;;;;;;;3.93;2.10;;;2.30;99.90;;;;;;5033566;28;20548;-60
2024/01/15 07:15:00;;;;;;;7.10;1.90;;;2.30;99.90;;;;;;5033661;28;20212;-60
2024/01/15 07:17:26;;;;;;;6.63;2.17;;;2.30;99.90;;;;;;5033220;28;20207;-61
2024/01/15 07:19:51;;;;;;;4.47;1.63;;;2.40;99.90;;;;;;5033181;28;20198;-60
2024/01/15 07:22:17;;;;;;;4.57;1.53;;;2.40;99.90;;;;;;5032141;28;20218;-61
2024/01/15 07:24:43;;;;;;;8.00;1.87;;;2.40;99.90;;;;;;5033464;28;20233;-61
2024/01/15 07:27:09;;;;;;;5.40;2.10;;;2.40;99.90;;;;;;5032802;28;20199;-60
2024/01/15 07:29:38;;;;;;;3.93;1.97;;;2.40;99.90;;;;;;5032837;28;20422;-60
2024/01/15 07:32:04;;;;;;;5.50;1.87;;;2.40;99.90;;;;;;5033125;28;20441;-60
2024/01/15 07:34:30;;;;;;;5.47;2.70;;;2.50;99.90;;;;;;5031677;28;20499;-60
2024/01/15 07:36:57;;;;;;;7.50;3.17;;;2.50;99.90;;;;;;5032942;28;20525;-60
2024/01/15 07:39:24;;;;;;;7.67;2.40;;;2.50;99.90;;;;;;5031128;28;20187;-60
2024/01/15 07:41:50;;;;;;;6.53;2.00;;;2.60;99.90;;;;;;5031495;28;20422;-60
2024/01/15 07:44:16;;;;;;;5.40;2.07;;;2.50;99.90;;;;;;5032186;28;20547;-60
2024/01/15 07:46:46;;;;;;;10.23;3.10;;;2.60;99.90;;;;;;5032468;28;20458;-61
2024/01/15 07:49:12;;;;;;;11.13;2.77;;;2.60;99.90;;;;;;5032309;28;20192;-60
2024/01/15 07:51:37;;;;;;;9.37;2.13;;;2.60;99.90;;;;;;5033155;28;20428;-61
2024/01/15 07:54:03;;;;;;;3.93;2.20;;;2.60;99.90;;;;;;5032684;28;20274;-61
2024/01/15 07:56:29;;;;;;;7.40;2.30;;;2.60;99.90;;;;;;5031974;28;20207;-59
2024/01/15 07:58:56;;;;;;;6.33;2.30;;;2.60;99.90;;;;;;5031812;28;20255;-58
2024/01/15 08:01:21;;;;;;;7.70;2.67;;;2.60;99.90;;;;;;5032281;28;20198;-60
2024/01/15 08:03:47;;;;;;;4.50;2.00;;;2.60;99.90;;;;;;5032076;28;20466;-60
2024/01/15 08:06:13;;;;;;;7.90;3.57;;;2.60;99.90;;;;;;5032146;28;20620;-60
2024/01/15 08:08:39;;;;;;;10.47;2.70;;;2.60;99.90;;;;;;5032281;28;20418;-60
2024/01/15 08:11:05;;;;;;;3.47;1.80;;;2.60;99.90;;;;;;5032397;28;20210;-60
2024/01/15 08:13:30;;;;;;;9.37;1.80;;;2.70;99.90;;;;;;5029728;28;20244;-59
2024/01/15 08:15:56;;;;;;;11.87;2.87;;;2.60;99.90;;;;;;5032108;28;20330;-60
2024/01/15 08:18:21;;;;;;;4.87;2.37;;;2.60;99.90;;;;;;5032453;28;20192;-59
2024/01/15 08:20:47;;;;;;;3.67;2.00;;;2.70;99.90;;;;;;5032125;28;20187;-59
2024/01/15 08:23:13;;;;;;;6.27;2.27;;;2.60;99.90;;;;;;5032023;28;20207;-60
2024/01/15 08:25:39;;;;;;;4.00;1.97;;;2.70;99.90;;;;;;5032093;28;20207;-59
2024/01/15 08:28:05;;;;;;;6.30;2.70;;;2.70;99.90;;;;;;5018597;28;20666;-57
2024/01/15 08:30:30;;;;;;;3.67;1.80;;;2.60;99.90;;;;;;5030880;28;20176;-61
2024/01/15 08:32:56;;;;;;;3.97;1.60;;;2.60;99.90;;;;;;5034372;28;20421;-60
2024/01/15 08:35:22;;;;;;;4.13;1.57;;;2.70;99.90;;;;;;5039610;28;20594;-61
2024/01/15 08:37:52;;;;;;;5.00;2.30;;;2.70;99.90;;;;;;5040485;28;20829;-60
2024/01/15 08:40:17;;;;;;;2.23;1.70;;;2.70;99.90;;;;;;5036499;28;20438;-60
2024/01/15 08:42:43;;;;;;;7.33;1.97;;;2.70;99.90;;;;;;5019589;28;20503;-61
2024/01/15 08:45:09;;;;;;;3.03;1.90;;;2.70;99.90;;;;;;5026566;28;20182;-60
2024/01/15 08:47:35;;;;;;;1.40;1.30;;;2.60;99.90;;;;;;5026046;28;20449;-60
2024/01/15 08:50:03;;;;;;;4.70;1.73;;;2.60;99.90;;;;;;5025725;28;20849;-60
2024/01/15 08:52:29;;;;;;;3.90;1.47;;;2.70;99.90;;;;;;5015183;28;20415;-60
2024/01/15 08:54:58;;;;;;;2.90;1.60;;;2.70;99.90;;;;;;5020982;28;20492;-60
2024/01/15 08:57:24;;;;;;;7.40;3.03;;;2.70;99.90;;;;;;5022971;28;20538;-58
2024/01/15 08:59:52;;;;;;;7.13;2.63;;;2.70;99.90;;;;;;5022470;28;20530;-59
2024/01/15 09:02:18;;;;;;;5.80;1.80;;;2.70;99.90;;;;;;5025626;28;20196;-60
2024/01/15 09:05:00;;;;;;;6.53;2.27;;;2.70;99.90;;;;;;5020139;28;20948;-59
2024/01/15 09:07:29;;;;;;;4.40;2.53;;;2.70;99.90;;;;;;5024826;28;20623;-59
2024/01/15 09:09:55;;;;;;;3.57;2.40;;;2.70;99.90;;;;;;4999164;28;20548;-60
2024/01/15 09:12:22;;;;;;;5.80;1.70;;;2.80;99.90;;;;;;5017530;28;20418;-59
2024/01/15 09:14:53;;;;;;;5.77;2.70;;;2.80;99.90;;;;;;5018354;28;20504;-60
2024/01/15 09:17:21;;;;;;;4.20;2.10;;;2.80;99.90;;;;;;5022141;28;20442;-59
2024/01/15 09:19:52;;;;;;;2.63;2.03;;;2.80;99.90;;;;;;5023535;28;20453;-61
2024/01/15 09:22:20;;;;;;;2.73;2.17;;;2.90;99.90;;;;;;5019398;28;20941;-63
2024/01/15 09:24:49;;;;;;;2.93;1.80;;;2.80;99.90;;;;;;5019627;28;20862;-61
2024/01/15 09:27:15;;;;;;;5.30;2.40;;;2.80;99.90;;;;;;5015900;28;20427;-60
2024/01/15 09:29:48;;;;;;;6.80;2.20;;;2.80;99.90;;;;;;5023457;28;20923;-61
2024/01/15 09:32:23;;;;;;;2.33;1.40;;;2.90;99.90;;;;;;5019871;28;20505;-61
2024/01/15 09:34:51;;;;;;;3.87;2.13;;;2.90;99.90;;;;;;5021750;28;20424;-58
2024/01/15 09:37:18;;;;;;;3.20;1.57;;;3.00;99.90;;;;;;5022356;28;20481;-61
2024/01/15 09:39:46;;;;;;;4.30;2.27;;;3.10;99.90;;;;;;5018038;28;20907;-61
2024/01/15 09:42:14;;;;;;;5.30;2.00;;;3.00;99.90;;;;;;5015388;28;20928;-60
2024/01/15 09:44:41;;;;;;;8.53;2.13;;;3.10;99.90;;;;;;5023259;28;20407;-61
2024/01/15 09:47:08;;;;;;;5.00;1.90;;;3.30;99.90;;;;;;5022282;28;20619;-61
2024/01/15 09:49:34;;;;;;;7.10;2.37;;;3.40;99.90;;;;;;5023775;28;20415;-61
2024/01/15 09:52:01;;;;;;;9.10;2.30;;;3.40;99.90;;;;;;5028409;28;20973;-60
2024/01/15 09:54:27;;;;;;;8.83;1.97;;;3.40;99.90;;;;;;5024356;28;20502;-64
2024/01/15 09:56:58;;;;;;;4.40;1.30;;;3.40;99.90;;;;;;5018950;28;20546;-62
2024/01/15 09:59:25;;;;;;;3.40;1.47;;;3.50;99.90;;;;;;5023121;28;20199;-63
2024/01/15 10:01:52;;;;;;;5.57;1.73;;;3.40;99.90;;;;;;5023668;28;20918;-61
2024/01/15 10:04:21;;;;;;;4.10;1.93;;;3.30;99.90;;;;;;5020781;28;20454;-64
2024/01/15 10:06:47;;;;;;;4.33;1.67;;;3.30;99.90;;;;;;5017203;28;20525;-64
2024/01/15 10:09:16;;;;;;;2.43;1.53;;;3.30;99.90;;;;;;5007164;28;20856;-64
2024/01/15 10:11:43;;;;;;;1.47;1.30;;;3.30;99.90;;;;;;5019308;28;20427;-63
2024/01/15 10:14:12;;;;;;;3.10;1.60;;;3.40;99.90;;;;;;5026176;28;20422;-68
2024/01/15 10:16:41;;;;;;;3.60;2.10;;;3.30;99.90;;;;;;5018033;28;20449;-61
2024/01/15 10:19:08;;;;;;;2.60;1.50;;;3.40;99.90;;;;;;5021241;28;20410;-59
2024/01/15 10:21:37;;;;;;;2.50;1.87;;;3.30;99.90;;;;;;5021696;28;20421;-60
2024/01/15 10:24:03;;;;;;;3.80;2.13;;;3.30;99.90;;;;;;5026650;28;20474;-60
2024/01/15 10:26:29;;;;;;;3.47;2.03;;;3.30;99.90;;;;;;5022546;28;20520;-60
2024/01/15 10:28:55;;;;;;;4.70;1.63;;;3.50;99.90;;;;;;5016819;28;20423;-59
2024/01/15 10:31:21;;;;;;;9.27;2.17;;;3.60;99.90;;;;;;5021856;28;20459;-60
2024/01/15 10:33:48;;;;;;;2.33;1.70;;;3.40;99.90;;;;;;5017248;28;20176;-61
2024/01/15 10:36:15;;;;;;;3.10;2.30;;;3.50;99.90;;;;;;5020844;28;20521;-60
2024/01/15 10:38:43;;;;;;;4.03;2.57;;;3.60;99.90;;;;;;5006270;28;20434;-58
2024/01/15 10:41:09;;;;;;;10.40;1.97;;;3.50;99.90;;;;;;5025097;28;20739;-60
2024/01/15 10:43:35;;;;;;;3.97;1.53;;;3.40;99.90;;;;;;5022842;28;20450;-61
2024/01/15 10:46:01;;;;;;;8.17;2.20;;;3.30;99.90;;;;;;5018056;28;20485;-58
2024/01/15 10:48:28;;;;;;;2.00;1.47;;;3.20;99.90;;;;;;5020101;28;20425;-58
2024/01/15 10:50:54;;;;;;;6.13;2.10;;;3.30;99.90;;;;;;5023890;28;20807;-61
2024/01/15 10:53:21;;;;;;;2.20;2.00;;;3.30;99.90;;;;;;5018943;28;20423;-60
2024/01/15 10:55:48;;;;;;;3.80;2.33;;;3.50;99.90;;;;;;5002862;28;20210;-60
2024/01/15 10:58:16;;;;;;;2.13;1.93;;;3.50;99.90;;;;;;5027413;28;20422;-61
2024/01/15 11:00:41;;;;;;;8.50;1.70;;;3.40;99.90;;;;;;5013680;28;20451;-60
2024/01/15 11:03:07;;;;;;;7.83;1.97;;;3.40;99.90;;;;;;5027139;28;20976;-60
2024/01/15 11:05:42;;;;;;;4.63;2.10;;;3.50;99.90;;;;;;5028976;28;20222;-60
2024/01/15 11:08:08;;;;;;;1.93;1.67;;;3.50;99.90;;;;;;5020354;28;20426;-59
2024/01/15 11:10:51;;;;;;;2.40;1.43;;;3.60;99.90;;;;;;5025231;28;20787;-60
2024/01/15 11:13:40;;;;;;;4.20;1.70;;;3.80;99.90;;;;;;5021516;28;20416;-60
2024/01/15 11:16:13;;;;;;;1.90;1.67;;;3.60;99.90;;;;;;5021599;28;20431;-60
2024/01/15 11:18:57;;;;;;;4.87;1.83;;;3.70;99.90;;;;;;5027193;28;20481;-58
2024/01/15 11:21:25;;;;;;;2.50;1.60;;;3.50;99.90;;;;;;5021180;28;20487;-60
2024/01/15 11:23:57;;;;;;;1.77;1.30;;;3.40;99.90;;;;;;5017044;28;20454;-59
2024/01/15 11:26:44;;;;;;;3.27;1.40;;;3.30;99.90;;;;;;5020520;28;20431;-61
2024/01/15 11:29:29;;;;;;;2.17;1.57;;;3.40;99.90;;;;;;5002983;28;20419;-59
2024/01/15 11:31:55;;;;;;;7.00;1.83;;;3.40;99.90;;;;;;5026864;28;20424;-59
2024/01/15 11:34:41;;;;;;;2.67;1.60;;;3.30;99.90;;;;;;5025097;28;20960;-59
2024/01/15 11:37:07;;;;;;;5.70;1.73;;;3.30;99.90;;;;;;5037545;28;20473;-60
2024/01/15 11:39:33;;;;;;;7.07;3.77;;;3.20;99.90;;;;;;5015216;28;20442;-60
2024/01/15 11:42:01;;;;;;;3.93;2.87;;;3.30;99.90;;;;;;5038294;28;20170;-60
2024/01/15 11:44:27;;;;;;;2.50;1.50;;;3.30;99.90;;;;;;5036550;28;20208;-60
2024/01/15 11:47:06;;;;;;;3.30;2.90;;;3.20;99.90;;;;;;5035609;28;20873;-60
2024/01/15 11:50:02;;;;;;;2.90;1.90;;;3.20;99.90;;;;;;5026943;28;20457;-60
2024/01/15 11:52:33;;;;;;;2.10;1.53;;;3.10;99.90;;;;;;5021735;28;20418;-63
2024/01/15 11:55:18;;;;;;;4.47;2.17;;;3.00;99.90;;;;;;5015410;28;20423;-61
2024/01/15 11:57:54;;;;;;;5.73;2.10;;;2.60;99.90;;;;;;5020601;28;20472;-59
2024/01/15 12:00:21;;;;;;;3.03;1.57;;;2.20;99.90;;;;;;5021638;28;20409;-60
2024/01/15 12:02:48;;;;;;;3.30;2.20;;;2.10;99.90;;;;;;5023667;28;20450;-59
2024/01/15 12:05:16;;;;;;;2.33;2.13;;;2.10;99.90;;;;;;5023248;28;20399;-60
2024/01/15 12:07:44;;;;;;;6.70;3.40;;;2.10;99.90;;;;;;5025056;28;20422;-60
2024/01/15 12:10:14;;;;;;;4.50;2.17;;;2.30;99.90;;;;;;5016989;28;20411;-61
2024/01/15 12:12:43;;;;;;;2.60;1.77;;;2.30;99.90;;;;;;5015629;28;20434;-60
2024/01/15 12:15:09;;;;;;;2.37;1.60;;;2.40;99.90;;;;;;5019220;28;20462;-60
2024/01/15 12:17:36;;;;;;;9.20;4.00;;;2.30;99.90;;;;;;5024258;28;20454;-60
2024/01/15 12:20:04;;;;;;;5.13;3.60;;;2.40;99.90;;;;;;5020842;28;20176;-60
2024/01/15 12:22:30;;;;;;;3.90;3.20;;;2.40;99.90;;;;;;5022272;28;20912;-57
2024/01/15 12:24:55;;;;;;;2.70;1.87;;;2.50;99.90;;;;;;5022722;28;20734;-63
2024/01/15 12:27:21;;;;;;;1.77;1.63;;;2.50;99.90;;;;;;5018958;28;20271;-60
2024/01/15 12:29:47;;;;;;;3.00;1.70;;;2.50;99.90;;;;;;5020904;28;20640;-60
2024/01/15 12:32:13;;;;;;;10.33;2.40;;;2.40;99.90;;;;;;5018000;28;20411;-60
2024/01/15 12:34:39;;;;;;;3.33;2.00;;;2.40;99.90;;;;;;5022953;28;20171;-62
2024/01/15 12:37:06;;;;;;;1.93;1.47;;;2.40;99.90;;;;;;5019024;28;20674;-62
2024/01/15 12:39:34;;;;;;;3.40;1.63;;;2.40;99.90;;;;;;5026281;28;20402;-60
2024/01/15 12:42:01;;;;;;;2.63;1.50;;;2.40;99.90;;;;;;5024831;28;20940;-59
2024/01/15 12:44:28;;;;;;;1.80;1.50;;;2.40;99.90;;;;;;5019124;28;20520;-61
2024/01/15 12:46:53;;;;;;;4.73;1.53;;;2.20;99.90;;;;;;5027059;28;20849;-64
2024/01/15 12:49:19;;;;;;;6.07;1.90;;;2.10;99.90;;;;;;5015721;28;20458;-61
2024/01/15 12:51:56;;;;;;;6.43;2.27;;;2.10;99.90;;;;;;5025438;28;20184;-61
2024/01/15 12:54:23;;;;;;;1.50;1.27;;;2.10;99.90;;;;;;5006820;28;20237;-61